KTOL/TOL METAR and TAF weather

Enter ICAO airport designator
Station Type Date Time Source
KTOL METAR 2019/05/21 19:52 UTC NOAA

KTOL 211952Z 10007KT 10SM OVC100 13/04 A3018 RMK AO2 RAE1853 SLP222 P0000 T01330044


Station Type Date Time Source
KTOL Decoded METAR 2019/05/21 19:52 UTC NOAA

TOLEDO EXPRESS AIRPORT, OH, United States (KTOL) 41-35N 083-48W 210M
May 21, 2019 - 03:52 PM EDT / 2019.05.21 1952 UTC
Wind: from the E (100 degrees) at 8 MPH (7 KT):0
Visibility: 10 mile(s):0
Sky conditions: overcast
Precipitation last hour: A trace
Temperature: 55.9 F (13.3 C)
Dew Point: 39.9 F (4.4 C)
Relative Humidity: 54%
Pressure (altimeter): 30.18 in. Hg (1022 hPa)
ob: KTOL 211952Z 10007KT 10SM OVC100 13/04 A3018 RMK AO2 RAE1853 SLP222 P0000 T01330044
cycle: 20

Station Type Date Time Source
KTOL TAF 2019/05/21 18:24 UTC NOAA

TAF KTOL 211722Z 2118/2218 09010KT P6SM SCT060 BKN090 PROB30 2212/2215 4SM -TSRA BR OVC025CB
FM221600 15010KT P6SM SCT050 BKN090

Example: see airport list